Airfield :
LOGIN :

Register | Disclaimer

   EN    FR    IT 

 










Legend :    VFR   Marginal VFR   IFR   Intensive IFR   Very Intensive IFR
Visi :
Ceiling :
>= 8 km
>= 3000ft
5 to 8 km
1000 to 3000 ft
1500m to 5 km
500 to 1000 ft
800 to 1500m
200 to 500 ft
< 800m
< 200 ft
Symbols :   Thunderstorms  Fog  Heavy snow  Heavy precipitations  Wind > 20 kt
SIGMETs :     Misc.  Thunderstorms  Icing  Turbulence  Mountain Waves  Volcanic Ashes







- Airport Elevation : 162 ft
- IATA code : BOD
- Download approach charts


LFBD - Bordeaux / Merignac

CURRENT METAR :
  • 181530Z AUTO 26016KT 9999 BKN007 BKN012 BKN017 12/11 Q1019 TEMPO 3000 -RA

EXPIRED METARs :
  • 181500Z AUTO 26013KT 9999 SCT007 BKN013 OVC043 12/11 Q1019 TEMPO 3000 -RA BKN005
  • 181430Z AUTO 25011KT 9999 1700 -RA FEW007 BKN011 BKN018 12/11 Q1019 TEMPO 3000 -RA BKN005
  • 181400Z AUTO 26016KT 6000 -DZ BKN008 OVC012 12/11 Q1019 TEMPO 3000 -RA
  • 181330Z AUTO 27015KT 9999 BKN007 BKN012 BKN021 11/11 Q1020 TEMPO 3000 -RA
  • 181300Z AUTO 27013KT 5000 2200 -RA BR SCT008 BKN013 BKN020 12/11 Q1020 TEMPO BKN005

TAF TAF LFBD
Valid from the 18 at 12:00 until the 19 at 18:00 UTC


181100Z 1812/1918 22015KT 9999 BKN015
PROB40 1812/1902 3000 -RA BKN005
BECMG 1902/1904 31010KT
TEMPO 1904/1912 4000 -SHRA
TEMPO 1912/1918 32015G25KT 3000 SHRA BKN020TCU TX12/1816Z TN06/1906Z
ATIS : +33 5 57 92 81 04
No reported NOTAMs for that airfield.
1 SIGMET reported for the Bordeaux FIR (LFBB) :
 
Severe turbulence
LFBB SIGMET 4 VALID 181300/181700 LFPW
LFBB BORDEAUX FIR/UIR SEV TURB FCST NE OF LINE N4500 E00245 - N4715 E00130 SFC/FL080 STNR WKN=



MET'MAP, your aeronautical weather chart ! - Copyright ORBIFLY December 2007 - Disclaimer

ORBIFLY MET'MAP TEAM :

Programming & Development : Alexandra Zaïnal
Concept & Development : Baudouin d'Aumeries
Co-Development & Prog : Marc-Olivier Méhu
Technical & hardware support : Manuel Goepfert

Contact : metmap@orbifly.com




SOURCES & CREDITS :

   NOAA